createdAt,value
2023-03-18T00:00:11.944Z,99962.50
2023-03-18T00:02:42.327Z,99961.53
2023-03-18T00:05:13.844Z,99956.50
2023-03-18T00:07:42.894Z,99962.81
2023-03-18T00:10:12.646Z,99957.53
2023-03-18T00:12:42.513Z,99951.53
2023-03-18T00:15:12.667Z,99953.19
2023-03-18T00:17:41.386Z,99953.84
2023-03-18T00:20:13.172Z,99950.31
2023-03-18T00:22:43.604Z,99954.34
2023-03-18T00:25:13.443Z,99943.44
2023-03-18T00:27:41.974Z,99945.16
2023-03-18T00:30:12.633Z,99954.97
2023-03-18T00:32:41.684Z,99959.91
2023-03-18T00:35:10.942Z,99947.88
2023-03-18T00:37:40.166Z,99944.41
2023-03-18T00:40:17.662Z,99949.59
2023-03-18T00:42:51.333Z,99936.44
2023-03-18T00:45:21.046Z,99947.25
2023-03-18T00:47:50.564Z,99937.81
2023-03-18T00:50:19.320Z,99935.31
2023-03-18T00:52:48.517Z,99935.06
2023-03-18T00:55:18.546Z,99934.06
2023-03-18T00:57:47.247Z,99933.53
2023-03-18T01:00:17.168Z,99930.94
2023-03-18T01:02:45.598Z,99932.41
2023-03-18T01:05:14.768Z,99922.59
2023-03-18T01:07:43.739Z,99921.00
2023-03-18T01:10:12.936Z,99922.75
2023-03-18T01:12:44.519Z,99924.44
2023-03-18T01:15:14.284Z,99919.41
2023-03-18T01:17:42.713Z,99924.56
2023-03-18T01:20:13.182Z,99921.31
2023-03-18T01:22:42.478Z,99918.72
2023-03-18T01:25:13.048Z,99914.50
2023-03-18T01:27:41.782Z,99911.06
2023-03-18T01:30:14.528Z,99918.44
2023-03-18T01:32:45.001Z,99917.31
2023-03-18T01:35:13.602Z,99916.41
2023-03-18T01:37:47.173Z,99908.25
2023-03-18T01:40:16.700Z,99914.38
2023-03-18T01:42:49.814Z,99903.41
2023-03-18T01:45:22.248Z,99906.72
2023-03-18T01:47:54.357Z,99904.88
2023-03-18T01:50:26.430Z,99912.81
2023-03-18T01:52:57.136Z,99908.66
2023-03-18T01:55:28.166Z,99910.22
2023-03-18T01:57:57.228Z,99911.50
2023-03-18T02:00:27.344Z,99908.31
2023-03-18T02:02:56.096Z,99910.69
2023-03-18T02:05:28.896Z,99900.28
2023-03-18T02:07:57.412Z,99906.91
2023-03-18T02:10:27.255Z,99907.41
2023-03-18T02:13:00.696Z,99896.97
2023-03-18T02:15:37.345Z,99906.97
2023-03-18T02:18:11.382Z,99901.03
2023-03-18T02:20:47.148Z,99905.25
2023-03-18T02:23:39.657Z,99910.41
2023-03-18T02:26:12.510Z,99902.88
2023-03-18T02:28:43.996Z,99913.06
2023-03-18T02:31:14.336Z,99902.72
2023-03-18T02:33:44.282Z,99909.25
2023-03-18T02:36:15.449Z,99902.63
2023-03-18T02:38:45.635Z,99907.41
2023-03-18T02:41:23.118Z,99907.47
2023-03-18T02:43:53.382Z,99898.16
2023-03-18T02:46:28.948Z,99900.41
2023-03-18T02:48:59.426Z,99894.69
2023-03-18T02:51:29.129Z,99899.22
2023-03-18T02:54:00.164Z,99897.22
2023-03-18T02:56:30.380Z,99900.50
2023-03-18T02:59:00.280Z,99901.88
2023-03-18T03:01:28.975Z,99897.84
2023-03-18T03:03:57.809Z,99898.72
2023-03-18T03:06:26.778Z,99898.81
2023-03-18T03:08:55.305Z,99905.56
2023-03-18T03:11:25.720Z,99903.84
2023-03-18T03:13:57.722Z,99907.41
2023-03-18T03:16:28.595Z,99902.00
2023-03-18T03:18:59.170Z,99902.78
2023-03-18T03:21:28.274Z,99905.19
2023-03-18T03:23:56.700Z,99901.94
2023-03-18T03:26:25.355Z,99905.84
2023-03-18T03:28:53.794Z,99901.75
2023-03-18T03:31:22.807Z,99908.34
2023-03-18T03:33:52.830Z,99905.19
2023-03-18T03:36:21.355Z,99902.00
2023-03-18T03:38:50.821Z,99901.28
2023-03-18T03:41:21.042Z,99904.50
2023-03-18T03:43:50.988Z,99904.66
2023-03-18T03:46:19.425Z,99907.63
2023-03-18T03:48:48.098Z,99908.63
2023-03-18T03:51:19.421Z,99915.34
2023-03-18T03:53:47.966Z,99915.34
2023-03-18T03:56:17.804Z,99909.34
2023-03-18T03:58:47.029Z,99921.44
2023-03-18T04:01:15.750Z,99926.47
2023-03-18T04:03:46.610Z,99918.16
2023-03-18T04:06:15.470Z,99921.59
2023-03-18T04:08:53.338Z,99920.63
2023-03-18T04:11:22.489Z,99919.06
2023-03-18T04:13:51.079Z,99922.81
2023-03-18T04:16:20.885Z,99925.53
2023-03-18T04:18:49.554Z,99917.03
2023-03-18T04:21:22.450Z,99923.94
2023-03-18T04:23:56.722Z,99924.66
2023-03-18T04:26:25.460Z,99922.81
2023-03-18T04:28:55.746Z,99918.47
2023-03-18T04:31:25.145Z,99917.56
2023-03-18T04:33:53.708Z,99926.03
2023-03-18T04:36:22.209Z,99926.88
2023-03-18T04:38:51.574Z,99923.44
2023-03-18T04:41:21.613Z,99930.19
2023-03-18T04:43:52.015Z,99928.22
2023-03-18T04:46:21.351Z,99927.94
2023-03-18T04:48:50.825Z,99930.66
2023-03-18T04:51:19.364Z,99938.13
2023-03-18T04:53:48.717Z,99933.09
2023-03-18T04:56:18.247Z,99932.31
2023-03-18T04:58:53.312Z,99938.31
2023-03-18T05:01:28.564Z,99933.19
2023-03-18T05:03:57.695Z,99933.91
2023-03-18T05:06:33.974Z,99933.59
2023-03-18T05:09:09.687Z,99940.50
2023-03-18T05:11:38.356Z,99937.22
2023-03-18T05:14:16.791Z,99942.38
2023-03-18T05:16:48.684Z,99952.41
2023-03-18T05:19:18.717Z,99946.03
2023-03-18T05:21:58.641Z,99942.69
2023-03-18T05:24:27.525Z,99949.50
2023-03-18T05:26:57.610Z,99946.19
2023-03-18T05:29:34.428Z,99950.63
2023-03-18T05:32:25.710Z,99958.06
2023-03-18T05:35:01.569Z,99961.72
2023-03-18T05:37:31.644Z,99960.31
2023-03-18T05:40:10.373Z,99959.09
2023-03-18T05:42:54.941Z,99960.16
2023-03-18T05:45:32.484Z,99963.84
2023-03-18T05:48:01.292Z,99961.84
2023-03-18T05:50:34.047Z,99962.47
2023-03-18T05:53:05.862Z,99967.59
2023-03-18T05:55:38.673Z,99964.94
2023-03-18T05:58:08.654Z,99973.22
2023-03-18T06:00:41.778Z,99974.69
2023-03-18T06:03:11.309Z,99969.56
2023-03-18T06:05:40.127Z,99969.19
2023-03-18T06:08:09.558Z,99972.84
2023-03-18T06:10:39.025Z,99971.56
2023-03-18T06:13:07.933Z,99981.44
2023-03-18T06:15:36.391Z,99980.25
2023-03-18T06:18:06.438Z,99985.16
2023-03-18T06:20:35.592Z,99979.78
2023-03-18T06:23:04.226Z,99988.06
2023-03-18T06:25:33.134Z,99991.31
2023-03-18T06:28:01.786Z,99987.97
2023-03-18T06:30:32.636Z,99991.13
2023-03-18T06:33:01.537Z,99990.06
2023-03-18T06:35:32.206Z,99993.44
2023-03-18T06:38:01.521Z,100000.13
2023-03-18T06:40:30.306Z,99995.00
2023-03-18T06:42:59.563Z,100000.59
2023-03-18T06:45:38.002Z,99999.06
2023-03-18T06:48:08.659Z,100000.34
2023-03-18T06:50:41.262Z,99992.50
2023-03-18T06:53:15.933Z,99989.72
2023-03-18T06:55:45.945Z,99990.22
2023-03-18T06:58:15.708Z,99995.44
2023-03-18T07:00:57.400Z,99996.44
2023-03-18T07:03:29.896Z,100002.63
2023-03-18T07:05:59.799Z,99999.59
2023-03-18T07:08:29.625Z,100004.25
2023-03-18T07:10:58.081Z,100003.78
2023-03-18T07:13:29.047Z,100015.94
2023-03-18T07:15:59.142Z,100009.31
2023-03-18T07:18:28.285Z,100009.53
2023-03-18T07:20:56.687Z,100023.22
2023-03-18T07:23:27.600Z,100013.91
2023-03-18T07:25:58.921Z,100010.69
2023-03-18T07:28:27.407Z,100016.72
2023-03-18T07:30:56.180Z,100011.00
2023-03-18T07:33:25.412Z,100018.00
2023-03-18T07:35:53.959Z,100017.25
2023-03-18T07:38:22.538Z,100012.28
2023-03-18T07:40:52.364Z,100022.66
2023-03-18T07:43:20.798Z,100017.81
2023-03-18T07:45:49.713Z,100016.28
2023-03-18T07:48:18.574Z,100023.28
2023-03-18T07:50:46.898Z,100014.03
2023-03-18T07:53:16.829Z,100018.28
2023-03-18T07:55:46.434Z,100024.28
2023-03-18T07:58:16.723Z,100025.19
2023-03-18T08:00:45.139Z,100021.78
2023-03-18T08:03:14.256Z,100025.16
2023-03-18T08:05:42.602Z,100027.81
2023-03-18T08:08:11.206Z,100026.28
2023-03-18T08:10:39.706Z,100026.31
2023-03-18T08:13:07.999Z,100022.91
2023-03-18T08:15:37.816Z,100025.56
2023-03-18T08:18:09.157Z,100021.41
2023-03-18T08:20:38.442Z,100018.88
2023-03-18T08:23:06.797Z,100021.44
2023-03-18T08:25:35.638Z,100020.59
2023-03-18T08:28:07.443Z,100009.66
2023-03-18T08:30:39.916Z,100017.41
2023-03-18T08:33:08.856Z,100014.03
2023-03-18T08:35:37.769Z,100014.94
2023-03-18T08:38:06.984Z,100009.75
2023-03-18T08:40:36.371Z,100013.97
2023-03-18T08:43:04.827Z,100009.81
2023-03-18T08:45:33.346Z,100014.19
2023-03-18T08:48:03.631Z,100017.59
2023-03-18T08:50:32.163Z,100028.66
2023-03-18T08:53:01.680Z,100020.97
2023-03-18T08:55:32.071Z,100004.00
2023-03-18T08:58:00.967Z,100010.84
2023-03-18T09:00:29.593Z,100014.22
2023-03-18T09:02:58.255Z,100010.88
2023-03-18T09:05:28.093Z,100013.41
2023-03-18T09:07:56.476Z,100007.47
2023-03-18T09:10:24.924Z,100004.06
2023-03-18T09:12:53.378Z,99997.25
2023-03-18T09:15:22.686Z,100004.13
2023-03-18T09:18:07.894Z,100002.44
2023-03-18T09:20:39.343Z,99996.50
2023-03-18T09:23:08.577Z,99996.50
2023-03-18T09:25:37.000Z,100004.19
2023-03-18T09:28:05.627Z,99996.50
2023-03-18T09:30:34.117Z,100000.75
2023-03-18T09:33:03.125Z,99993.97
2023-03-18T09:35:31.893Z,100000.78
2023-03-18T09:38:02.321Z,99995.66
2023-03-18T09:40:32.884Z,99995.66
2023-03-18T09:43:07.028Z,99994.81
2023-03-18T09:45:37.344Z,99993.06
2023-03-18T09:48:16.770Z,99990.53
2023-03-18T09:50:51.202Z,99982.00
2023-03-18T09:53:23.113Z,99982.84
2023-03-18T09:55:55.913Z,99981.13
2023-03-18T09:58:29.921Z,99985.41
2023-03-18T10:01:00.918Z,99983.72
2023-03-18T10:03:33.908Z,99988.78
2023-03-18T10:06:05.279Z,99980.31
2023-03-18T10:08:42.901Z,99968.31
2023-03-18T10:11:16.236Z,99958.09
2023-03-18T10:13:46.995Z,99958.09
2023-03-18T10:16:22.094Z,99964.00
2023-03-18T10:18:50.915Z,99959.72
2023-03-18T10:21:27.805Z,99955.38
2023-03-18T10:24:02.641Z,99956.13
2023-03-18T10:26:33.615Z,99953.56
2023-03-18T10:29:06.026Z,99949.28
2023-03-18T10:31:39.972Z,99952.69
2023-03-18T10:34:13.613Z,99950.19
2023-03-18T10:36:49.520Z,99947.63
2023-03-18T10:39:20.466Z,99945.09
2023-03-18T10:41:51.237Z,99935.66
2023-03-18T10:44:22.255Z,99947.59
2023-03-18T10:46:56.081Z,99944.22
2023-03-18T10:49:27.231Z,99933.84
2023-03-18T10:51:56.474Z,99935.38
2023-03-18T10:54:28.824Z,99935.25
2023-03-18T10:56:57.302Z,99929.22
2023-03-18T10:59:27.182Z,99922.41
2023-03-18T11:01:59.175Z,99919.78
2023-03-18T11:04:31.014Z,99919.66
2023-03-18T11:07:01.796Z,99922.91
2023-03-18T11:09:36.598Z,99909.28
2023-03-18T11:12:06.096Z,99915.25
2023-03-18T11:14:34.920Z,99905.13
2023-03-18T11:17:04.681Z,99910.41
2023-03-18T11:19:34.004Z,99911.56
2023-03-18T11:22:04.627Z,99904.75
2023-03-18T11:24:39.778Z,99902.84
2023-03-18T11:27:23.130Z,99901.75
2023-03-18T11:29:55.455Z,99888.78
2023-03-18T11:32:28.489Z,99895.41
2023-03-18T11:34:58.887Z,99879.88
2023-03-18T11:37:34.551Z,99891.91
2023-03-18T11:40:14.027Z,99892.00
2023-03-18T11:42:43.967Z,99881.69
2023-03-18T11:45:25.179Z,99884.84
2023-03-18T11:47:53.917Z,99883.06
2023-03-18T11:50:25.787Z,99876.50
2023-03-18T11:52:59.544Z,99881.63
2023-03-18T11:55:34.256Z,99881.56
2023-03-18T11:58:17.667Z,99886.00
2023-03-18T12:00:52.920Z,99880.03
2023-03-18T12:03:31.179Z,99878.31
2023-03-18T12:06:11.783Z,99871.28
2023-03-18T12:08:51.747Z,99864.25
2023-03-18T12:11:25.869Z,99870.94
2023-03-18T12:14:01.142Z,99873.69
2023-03-18T12:16:40.548Z,99864.22
2023-03-18T12:19:25.818Z,99864.09
2023-03-18T12:22:04.403Z,99861.69
2023-03-18T12:24:44.367Z,99850.38
2023-03-18T12:27:17.199Z,99857.09
2023-03-18T12:30:01.268Z,99858.63
2023-03-18T12:32:32.964Z,99854.50
2023-03-18T12:35:09.569Z,99848.56
2023-03-18T12:37:45.254Z,99850.22
2023-03-18T12:40:25.715Z,99840.81
2023-03-18T12:43:02.467Z,99853.69
2023-03-18T12:45:35.965Z,99849.50
2023-03-18T12:48:06.586Z,99853.84
2023-03-18T12:50:38.800Z,99845.19
2023-03-18T12:53:10.873Z,99850.13
2023-03-18T12:55:40.589Z,99846.53
2023-03-18T12:58:14.708Z,99840.56
2023-03-18T13:00:48.518Z,99845.66
2023-03-18T13:03:25.162Z,99842.34
2023-03-18T13:05:54.902Z,99834.47
2023-03-18T13:08:36.375Z,99837.84
2023-03-18T13:11:06.813Z,99825.97
2023-03-18T13:13:38.550Z,99830.31
2023-03-18T13:16:09.163Z,99824.22
2023-03-18T13:18:43.311Z,99812.88
2023-03-18T13:21:15.898Z,99811.97
2023-03-18T13:24:01.317Z,99811.88
2023-03-18T13:26:35.988Z,99809.19
2023-03-18T13:29:14.851Z,99817.88
2023-03-18T13:31:52.457Z,99813.78
2023-03-18T13:34:31.784Z,99813.63
2023-03-18T13:37:10.147Z,99807.53
2023-03-18T13:39:59.790Z,99799.56
2023-03-18T13:42:30.190Z,99813.19
2023-03-18T13:45:01.949Z,99798.22
2023-03-18T13:47:35.019Z,99794.75
2023-03-18T13:50:05.685Z,99795.84
2023-03-18T13:52:42.106Z,99793.13
2023-03-18T13:55:20.052Z,99802.38
2023-03-18T13:57:49.878Z,99794.59
2023-03-18T14:00:40.822Z,99791.41
2023-03-18T14:03:19.633Z,99783.25
2023-03-18T14:05:48.576Z,99783.56
2023-03-18T14:08:28.648Z,99790.44
2023-03-18T14:11:11.908Z,99783.75
2023-03-18T14:13:40.317Z,99788.69
2023-03-18T14:16:11.484Z,99775.72
2023-03-18T14:18:41.610Z,99778.06
2023-03-18T14:21:25.231Z,99774.59
2023-03-18T14:24:07.615Z,99778.22
2023-03-18T14:26:38.037Z,99778.22
2023-03-18T14:29:18.494Z,99776.38
2023-03-18T14:31:58.174Z,99770.31
2023-03-18T14:34:33.414Z,99774.63
2023-03-18T14:37:19.673Z,99767.94
2023-03-18T14:39:53.023Z,99775.63
2023-03-18T14:42:28.819Z,99772.38
2023-03-18T14:45:02.505Z,99772.47
2023-03-18T14:47:39.636Z,99777.75
2023-03-18T14:50:15.667Z,99777.72
2023-03-18T14:52:46.544Z,99781.84
2023-03-18T14:55:18.680Z,99768.16
2023-03-18T14:57:47.555Z,99771.44
2023-03-18T15:00:16.578Z,99769.88
2023-03-18T15:02:46.035Z,99770.75
2023-03-18T15:05:17.736Z,99770.78
2023-03-18T15:07:51.513Z,99769.88
2023-03-18T15:10:22.419Z,99768.06
2023-03-18T15:12:58.474Z,99766.44
2023-03-18T15:15:27.269Z,99759.66
2023-03-18T15:17:55.552Z,99764.81
2023-03-18T15:20:25.515Z,99760.59
2023-03-18T15:22:54.341Z,99754.63
2023-03-18T15:25:24.577Z,99744.47
2023-03-18T15:27:55.984Z,99746.09
2023-03-18T15:30:27.516Z,99748.78
2023-03-18T15:33:07.463Z,99740.41
2023-03-18T15:35:39.955Z,99744.06
2023-03-18T15:38:15.970Z,99739.97
2023-03-18T15:40:49.026Z,99735.69
2023-03-18T15:43:20.652Z,99734.00
2023-03-18T15:45:54.048Z,99736.66
2023-03-18T15:48:27.154Z,99741.88
2023-03-18T15:50:58.429Z,99738.63
2023-03-18T15:53:28.590Z,99738.75
2023-03-18T15:55:58.652Z,99745.66
2023-03-18T15:58:28.382Z,99744.03
2023-03-18T16:00:58.242Z,99746.63
2023-03-18T16:03:27.853Z,99752.66
2023-03-18T16:05:58.389Z,99751.81
2023-03-18T16:08:26.891Z,99749.31
2023-03-18T16:10:58.109Z,99749.34
2023-03-18T16:13:29.807Z,99746.81
2023-03-18T16:15:58.505Z,99736.59
2023-03-18T16:18:27.361Z,99751.13
2023-03-18T16:20:57.447Z,99752.88
2023-03-18T16:23:25.857Z,99748.69
2023-03-18T16:25:56.710Z,99747.84
2023-03-18T16:28:26.016Z,99751.31
2023-03-18T16:30:56.526Z,99751.31
2023-03-18T16:33:25.624Z,99753.06
2023-03-18T16:35:55.632Z,99749.69
2023-03-18T16:38:26.169Z,99754.00
2023-03-18T16:40:55.618Z,99757.47
2023-03-18T16:43:24.716Z,99764.41
2023-03-18T16:45:53.663Z,99769.53
2023-03-18T16:48:23.207Z,99777.25
2023-03-18T16:50:52.543Z,99777.31
2023-03-18T16:53:22.257Z,99781.63
2023-03-18T16:55:53.916Z,99791.06
2023-03-18T16:58:24.936Z,99788.53
2023-03-18T17:00:53.436Z,99787.72
2023-03-18T17:03:21.801Z,99793.69
2023-03-18T17:05:52.228Z,99795.41
2023-03-18T17:08:21.878Z,99791.13
2023-03-18T17:10:53.519Z,99791.16
2023-03-18T17:13:23.740Z,99801.41
2023-03-18T17:15:52.579Z,99803.09
2023-03-18T17:18:22.241Z,99799.72
2023-03-18T17:20:51.080Z,99808.22
2023-03-18T17:23:21.293Z,99809.94
2023-03-18T17:25:53.900Z,99808.22
2023-03-18T17:28:34.717Z,99805.66
2023-03-18T17:31:03.484Z,99813.34
2023-03-18T17:33:32.863Z,99817.59
2023-03-18T17:36:01.847Z,99816.75
2023-03-18T17:38:31.508Z,99825.28
2023-03-18T17:41:01.808Z,99820.19
2023-03-18T17:43:31.601Z,99825.28
2023-03-18T17:46:01.182Z,99825.31
2023-03-18T17:48:31.196Z,99820.19
2023-03-18T17:51:00.651Z,99823.63
2023-03-18T17:53:31.508Z,99815.09
2023-03-18T17:56:01.934Z,99815.91
2023-03-18T17:58:32.025Z,99816.78
2023-03-18T18:01:03.778Z,99814.25
2023-03-18T18:03:33.260Z,99809.13
2023-03-18T18:06:01.970Z,99809.13
2023-03-18T18:08:31.979Z,99811.69
2023-03-18T18:11:05.651Z,99808.28
2023-03-18T18:13:34.079Z,99811.69
2023-03-18T18:16:02.566Z,99803.16
2023-03-18T18:18:31.105Z,99810.00
2023-03-18T18:21:00.375Z,99804.88
2023-03-18T18:23:30.565Z,99808.25
2023-03-18T18:26:00.095Z,99810.00
2023-03-18T18:28:34.594Z,99811.69
2023-03-18T18:31:03.870Z,99808.28
2023-03-18T18:33:32.895Z,99805.72
2023-03-18T18:36:01.799Z,99810.81
2023-03-18T18:38:31.162Z,99810.00
2023-03-18T18:41:00.317Z,99816.81
2023-03-18T18:43:29.307Z,99817.66
2023-03-18T18:45:59.609Z,99821.91
2023-03-18T18:48:30.027Z,99824.47
2023-03-18T18:50:58.724Z,99822.72
2023-03-18T18:53:28.951Z,99828.69
2023-03-18T18:55:58.382Z,99827.00
2023-03-18T18:58:28.980Z,99827.00
2023-03-18T19:01:00.237Z,99832.09
2023-03-18T19:03:30.701Z,99825.28
2023-03-18T19:05:59.817Z,99832.09
2023-03-18T19:08:29.097Z,99828.66
2023-03-18T19:10:57.922Z,99832.06
2023-03-18T19:13:27.327Z,99842.25
2023-03-18T19:15:57.343Z,99837.16
2023-03-18T19:18:28.312Z,99835.47
2023-03-18T19:20:56.863Z,99843.97
2023-03-18T19:23:26.920Z,99843.09
2023-03-18T19:25:56.460Z,99843.97
2023-03-18T19:28:47.868Z,99850.75
2023-03-18T19:31:20.697Z,99854.16
2023-03-18T19:33:51.947Z,99846.47
2023-03-18T19:36:25.609Z,99849.03
2023-03-18T19:38:54.078Z,99845.63
2023-03-18T19:41:22.936Z,99858.38
2023-03-18T19:43:51.630Z,99848.16
2023-03-18T19:46:21.833Z,99850.69
2023-03-18T19:48:51.957Z,99855.81
2023-03-18T19:51:20.535Z,99855.81
2023-03-18T19:53:49.068Z,99847.28
2023-03-18T19:56:25.428Z,99848.97
2023-03-18T19:58:55.785Z,99846.44
2023-03-18T20:01:24.575Z,99849.00
2023-03-18T20:03:57.267Z,99848.13
2023-03-18T20:06:26.162Z,99850.69
2023-03-18T20:08:54.561Z,99845.56
2023-03-18T20:11:23.090Z,99846.38
2023-03-18T20:13:51.606Z,99842.13
2023-03-18T20:16:22.070Z,99854.88
2023-03-18T20:18:50.681Z,99848.91
2023-03-18T20:21:23.851Z,99854.03
2023-03-18T20:23:53.808Z,99850.59
2023-03-18T20:26:22.586Z,99850.59
2023-03-18T20:28:55.812Z,99858.25
2023-03-18T20:31:24.347Z,99852.28
2023-03-18T20:33:52.834Z,99853.13
2023-03-18T20:36:22.900Z,99852.28
2023-03-18T20:38:51.829Z,99857.34
2023-03-18T20:41:21.980Z,99857.34
2023-03-18T20:43:50.560Z,99855.66
2023-03-18T20:46:19.087Z,99855.69
2023-03-18T20:48:49.716Z,99851.41
2023-03-18T20:51:21.543Z,99860.78
2023-03-18T20:53:51.918Z,99853.97
2023-03-18T20:56:23.253Z,99854.84
2023-03-18T20:58:51.718Z,99854.81
2023-03-18T21:01:20.520Z,99854.84
2023-03-18T21:03:49.155Z,99853.94
2023-03-18T21:06:19.430Z,99856.34
2023-03-18T21:08:47.996Z,99863.63
2023-03-18T21:11:21.973Z,99868.16
2023-03-18T21:13:50.669Z,99877.06
2023-03-18T21:16:20.202Z,99875.06
2023-03-18T21:18:50.093Z,99867.28
2023-03-18T21:21:21.414Z,99869.63
2023-03-18T21:23:49.962Z,99872.78
2023-03-18T21:26:19.977Z,99870.13
2023-03-18T21:28:48.460Z,99863.94
2023-03-18T21:31:22.301Z,99868.75
2023-03-18T21:33:51.639Z,99864.34
2023-03-18T21:36:20.192Z,99864.16
2023-03-18T21:38:49.174Z,99865.72
2023-03-18T21:41:21.423Z,99872.09
2023-03-18T21:43:50.592Z,99867.59
2023-03-18T21:46:19.776Z,99864.25
2023-03-18T21:48:48.234Z,99863.16
2023-03-18T21:51:37.242Z,99869.59
2023-03-18T21:54:07.940Z,99866.91
2023-03-18T21:56:37.765Z,99862.66
2023-03-18T21:59:06.244Z,99866.09
2023-03-18T22:01:34.862Z,99866.09
2023-03-18T22:04:03.856Z,99863.47
2023-03-18T22:06:32.282Z,99855.78
2023-03-18T22:09:00.689Z,99863.31
2023-03-18T22:11:29.136Z,99860.75
2023-03-18T22:13:59.053Z,99867.22
2023-03-18T22:16:27.489Z,99863.81
2023-03-18T22:18:56.358Z,99867.09
2023-03-18T22:21:27.681Z,99856.75
2023-03-18T22:23:58.327Z,99854.72
2023-03-18T22:26:27.093Z,99856.44
2023-03-18T22:28:55.480Z,99856.28
2023-03-18T22:31:26.436Z,99859.66
2023-03-18T22:33:55.220Z,99859.50
2023-03-18T22:36:23.953Z,99860.09
2023-03-18T22:38:52.533Z,99867.69
2023-03-18T22:41:22.185Z,99871.88
2023-03-18T22:43:51.572Z,99871.00
2023-03-18T22:46:19.979Z,99866.00
2023-03-18T22:48:49.883Z,99869.91
2023-03-18T22:51:24.345Z,99874.19
2023-03-18T22:53:53.634Z,99868.97
2023-03-18T22:56:22.836Z,99877.50
2023-03-18T22:58:51.505Z,99877.41
2023-03-18T23:01:21.245Z,99878.97
2023-03-18T23:03:51.934Z,99878.88
2023-03-18T23:06:24.126Z,99872.13
2023-03-18T23:08:52.787Z,99876.34
2023-03-18T23:11:21.231Z,99878.16
2023-03-18T23:13:52.353Z,99882.16
2023-03-18T23:16:21.947Z,99878.59
2023-03-18T23:18:52.032Z,99885.16
2023-03-18T23:21:22.053Z,99884.38
2023-03-18T23:23:50.602Z,99886.00
2023-03-18T23:26:19.528Z,99889.53
2023-03-18T23:28:49.243Z,99892.88
2023-03-18T23:31:18.161Z,99902.75
2023-03-18T23:33:47.499Z,99889.97
2023-03-18T23:36:17.833Z,99891.66
2023-03-18T23:38:46.346Z,99894.22
2023-03-18T23:41:14.861Z,99890.19
2023-03-18T23:43:43.290Z,99895.31
2023-03-18T23:46:12.101Z,99893.66
2023-03-18T23:48:40.534Z,99888.59
2023-03-18T23:51:09.042Z,99886.91
2023-03-18T23:53:38.881Z,99881.56
2023-03-18T23:56:07.572Z,99875.59
2023-03-18T23:58:35.967Z,99875.59
